Time,TemperatureF,DewpointF,PressureIn,WindDirection,WindDirectionDegrees,WindSpeedMPH,WindSpeedGustMPH,Humidity,HourlyPrecipIn,Conditions,Clouds,dailyrainin,SolarRadiationWatts/m^2,SoftwareType,DateUTC
2013-06-05 00:30:00,44.1,37.0,29.53,ESE,120,5.0,6.0,77,0.00,,,0.00,0,weatherlink.com 1.10,2013-06-05 06:30:00,
2013-06-05 01:00:00,42.7,37.0,29.54,WSW,257,0.0,4.0,80,0.00,,,0.00,0,weatherlink.com 1.10,2013-06-05 07:00:00,
2013-06-05 01:13:00,42.0,36.0,29.53,SE,145,2.0,3.0,79,0.00,,,0.00,0,weatherlink.com 1.10,2013-06-05 07:13:00,
2013-06-05 01:28:00,41.2,36.0,29.54,SE,146,0.0,2.0,83,0.00,,,0.00,0,weatherlink.com 1.10,2013-06-05 07:28:00,
2013-06-05 01:43:00,40.7,36.0,29.54,SSE,156,0.0,0.0,84,0.00,,,0.00,0,weatherlink.com 1.10,2013-06-05 07:43:00,
2013-06-05 01:58:00,40.4,37.0,29.53,SE,146,3.0,4.0,86,0.00,,,0.00,0,weatherlink.com 1.10,2013-06-05 07:58:00,
2013-06-05 02:13:00,39.3,36.0,29.52,ESE,112,3.0,5.0,86,0.00,,,0.00,0,weatherlink.com 1.10,2013-06-05 08:13:00,
2013-06-05 02:28:00,39.1,37.0,29.53,SE,144,2.0,8.0,90,0.00,,,0.00,0,weatherlink.com 1.10,2013-06-05 08:28:00,
2013-06-05 02:43:00,40.8,37.0,29.51,ESE,115,4.0,8.0,85,0.00,,,0.00,0,weatherlink.com 1.10,2013-06-05 08:43:00,
2013-06-05 02:58:00,41.4,37.0,29.52,ESE,121,2.0,5.0,84,0.00,,,0.00,0,weatherlink.com 1.10,2013-06-05 08:58:00,
2013-06-05 03:14:00,41.9,37.0,29.52,East,99,3.0,8.0,83,0.00,,,0.00,0,weatherlink.com 1.10,2013-06-05 09:14:00,
2013-06-05 03:29:00,40.9,36.0,29.51,ESE,119,7.0,9.0,83,0.00,,,0.00,0,weatherlink.com 1.10,2013-06-05 09:29:00,
2013-06-05 03:44:00,41.0,37.0,29.51,East,101,0.0,5.0,86,0.00,,,0.00,0,weatherlink.com 1.10,2013-06-05 09:44:00,
2013-06-05 03:59:00,40.7,37.0,29.51,East,101,0.0,2.0,86,0.00,,,0.00,0,weatherlink.com 1.10,2013-06-05 09:59:00,
2013-06-05 04:14:00,39.8,36.0,29.50,East,101,0.0,2.0,85,0.00,,,0.00,0,weatherlink.com 1.10,2013-06-05 10:14:00,
2013-06-05 04:29:00,38.8,36.0,29.50,SE,138,5.0,5.0,89,0.00,,,0.00,0,weatherlink.com 1.10,2013-06-05 10:29:00,
2013-06-05 04:44:00,38.7,36.0,29.50,ESE,122,3.0,7.0,89,0.00,,,0.00,0,weatherlink.com 1.10,2013-06-05 10:44:00,
2013-06-05 04:59:00,40.2,37.0,29.51,ESE,107,3.0,8.0,87,0.00,,,0.00,0,weatherlink.com 1.10,2013-06-05 10:59:00,
2013-06-05 05:14:00,39.5,37.0,29.52,ESE,110,5.0,9.0,90,0.00,,,0.00,0,weatherlink.com 1.10,2013-06-05 11:14:00,
2013-06-05 05:29:00,38.9,37.0,29.52,ESE,111,11.0,11.0,92,0.00,,,0.00,0,weatherlink.com 1.10,2013-06-05 11:29:00,
2013-06-05 05:44:00,39.9,38.0,29.53,ESE,115,9.0,14.0,94,0.00,,,0.00,0,weatherlink.com 1.10,2013-06-05 11:44:00,
2013-06-05 05:59:00,39.6,38.0,29.52,ESE,109,9.0,15.0,94,0.00,,,0.00,7,weatherlink.com 1.10,2013-06-05 11:59:00,
2013-06-05 06:14:00,39.3,38.0,29.53,ESE,103,11.0,17.0,95,0.00,,,0.00,11,weatherlink.com 1.10,2013-06-05 12:14:00,
2013-06-05 06:29:00,39.5,38.0,29.53,SE,126,8.0,15.0,95,0.00,,,0.00,21,weatherlink.com 1.10,2013-06-05 12:29:00,
2013-06-05 06:44:00,39.4,38.0,29.52,SE,126,8.0,21.0,95,0.00,,,0.00,19,weatherlink.com 1.10,2013-06-05 12:44:00,
2013-06-05 06:59:00,39.2,38.0,29.53,East,92,14.0,23.0,95,0.00,,,0.00,39,weatherlink.com 1.10,2013-06-05 12:59:00,
2013-06-05 07:14:00,39.1,38.0,29.54,SE,135,8.0,22.0,95,0.00,,,0.00,62,weatherlink.com 1.10,2013-06-05 13:14:00,
2013-06-05 07:29:00,39.1,38.0,29.54,ESE,116,12.0,18.0,96,0.00,,,0.00,54,weatherlink.com 1.10,2013-06-05 13:29:00,
2013-06-05 07:44:00,39.3,38.0,29.55,ESE,121,9.0,14.0,96,0.00,,,0.00,91,weatherlink.com 1.10,2013-06-05 13:44:00,
2013-06-05 07:59:00,39.9,39.0,29.55,ESE,111,7.0,14.0,96,0.00,,,0.00,118,weatherlink.com 1.10,2013-06-05 13:59:00,
2013-06-05 08:14:00,39.8,39.0,29.56,ESE,119,5.0,11.0,96,0.00,,,0.00,109,weatherlink.com 1.10,2013-06-05 14:14:00,
2013-06-05 08:29:00,39.8,39.0,29.57,ESE,117,10.0,14.0,96,0.00,,,0.00,130,weatherlink.com 1.10,2013-06-05 14:29:00,
2013-06-05 08:44:00,40.0,39.0,29.57,ESE,116,7.0,10.0,96,0.00,,,0.00,178,weatherlink.com 1.10,2013-06-05 14:44:00,
2013-06-05 08:59:00,40.6,40.0,29.58,SE,136,7.0,11.0,96,0.00,,,0.00,163,weatherlink.com 1.10,2013-06-05 14:59:00,
2013-06-05 09:14:00,40.7,40.0,29.58,SE,126,6.0,9.0,96,0.00,,,0.00,200,weatherlink.com 1.10,2013-06-05 15:14:00,
2013-06-05 09:29:00,41.3,40.0,29.58,ESE,117,7.0,9.0,96,0.00,,,0.00,172,weatherlink.com 1.10,2013-06-05 15:29:00,
2013-06-05 09:44:00,41.7,41.0,29.58,East,90,8.0,10.0,96,0.00,,,0.00,348,weatherlink.com 1.10,2013-06-05 15:44:00,
2013-06-05 09:59:00,42.9,42.0,29.57,ESE,111,9.0,14.0,95,0.00,,,0.00,230,weatherlink.com 1.10,2013-06-05 15:59:00,
2013-06-05 10:14:00,45.8,44.0,29.56,East,101,13.0,15.0,92,0.00,,,0.00,450,weatherlink.com 1.10,2013-06-05 16:14:00,
2013-06-05 10:29:00,48.7,43.0,29.56,ESE,123,11.0,15.0,81,0.00,,,0.00,861,weatherlink.com 1.10,2013-06-05 16:29:00,
2013-06-05 10:44:00,50.2,43.0,29.56,ESE,114,10.0,16.0,76,0.00,,,0.00,962,weatherlink.com 1.10,2013-06-05 16:44:00,
2013-06-05 11:00:00,51.3,42.0,29.56,SSE,153,4.0,14.0,71,0.00,,,0.00,886,weatherlink.com 1.10,2013-06-05 17:00:00,
2013-06-05 11:15:00,55.1,41.0,29.56,East,92,2.0,11.0,59,0.00,,,0.00,777,weatherlink.com 1.10,2013-06-05 17:15:00,
2013-06-05 11:30:00,54.8,41.0,29.56,South,173,1.0,12.0,60,0.00,,,0.00,937,weatherlink.com 1.10,2013-06-05 17:30:00,
2013-06-05 12:00:00,55.5,42.0,29.55,ESE,123,9.0,13.0,60,0.00,,,0.00,830,weatherlink.com 1.10,2013-06-05 18:00:00,
2013-06-05 12:15:00,56.1,41.0,29.55,SE,140,5.0,14.0,58,0.00,,,0.00,995,weatherlink.com 1.10,2013-06-05 18:15:00,
2013-06-05 12:30:00,59.8,40.0,29.55,SE,128,6.0,13.0,49,0.00,,,0.00,1013,weatherlink.com 1.10,2013-06-05 18:30:00,
2013-06-05 12:45:00,61.5,37.0,29.55,ESE,123,4.0,13.0,40,0.00,,,0.00,882,weatherlink.com 1.10,2013-06-05 18:45:00,
2013-06-05 13:00:00,60.9,37.0,29.54,SSE,155,4.0,17.0,42,0.00,,,0.00,918,weatherlink.com 1.10,2013-06-05 19:00:00,
2013-06-05 13:15:00,63.3,36.0,29.54,ESE,123,8.0,14.0,37,0.00,,,0.00,953,weatherlink.com 1.10,2013-06-05 19:15:00,
2013-06-05 13:30:00,65.7,33.0,29.54,SE,140,8.0,10.0,30,0.00,,,0.00,1100,weatherlink.com 1.10,2013-06-05 19:30:00,
2013-06-05 13:45:00,67.3,32.0,29.55,WSW,256,5.0,15.0,27,0.00,,,0.00,916,weatherlink.com 1.10,2013-06-05 19:45:00,
2013-06-05 14:00:00,67.2,31.0,29.54,South,185,5.0,15.0,26,0.00,,,0.00,1172,weatherlink.com 1.10,2013-06-05 20:00:00,
2013-06-05 14:15:00,66.9,31.0,29.53,SSE,163,4.0,9.0,26,0.00,,,0.00,1106,weatherlink.com 1.10,2013-06-05 20:15:00,
2013-06-05 14:30:00,68.2,31.0,29.53,SE,145,5.0,12.0,25,0.00,,,0.00,1157,weatherlink.com 1.10,2013-06-05 20:30:00,
2013-06-05 14:45:00,61.6,38.0,29.53,SE,126,11.0,23.0,42,0.00,,,0.00,870,weatherlink.com 1.10,2013-06-05 20:45:00,
2013-06-05 15:00:00,56.2,39.0,29.54,SE,131,10.0,25.0,52,0.00,,,0.00,958,weatherlink.com 1.10,2013-06-05 21:00:00,
2013-06-05 15:15:00,53.0,38.0,29.54,SSE,150,12.0,19.0,57,0.00,,,0.00,178,weatherlink.com 1.10,2013-06-05 21:15:00,
2013-06-05 15:30:00,55.3,40.0,29.55,ESE,116,15.0,18.0,56,0.00,,,0.00,895,weatherlink.com 1.10,2013-06-05 21:30:00,
2013-06-05 15:45:00,56.3,39.0,29.55,East,94,10.0,17.0,53,0.00,,,0.00,863,weatherlink.com 1.10,2013-06-05 21:45:00,
2013-06-05 16:00:00,57.3,40.0,29.55,ESE,115,10.0,19.0,52,0.00,,,0.00,819,weatherlink.com 1.10,2013-06-05 22:00:00,
2013-06-05 16:15:00,58.9,39.0,29.54,East,96,13.0,17.0,48,0.00,,,0.00,793,weatherlink.com 1.10,2013-06-05 22:15:00,
2013-06-05 16:30:00,57.3,40.0,29.55,East,92,14.0,14.0,52,0.00,,,0.00,717,weatherlink.com 1.10,2013-06-05 22:30:00,
2013-06-05 16:45:00,57.2,39.0,29.55,ESE,109,10.0,12.0,51,0.00,,,0.00,125,weatherlink.com 1.10,2013-06-05 22:45:00,
2013-06-05 17:00:00,52.0,38.0,29.56,ESE,107,10.0,14.0,60,0.00,,,0.00,156,weatherlink.com 1.10,2013-06-05 23:00:00,
2013-06-05 17:15:00,50.6,39.0,29.56,SE,128,11.0,16.0,64,0.00,,,0.00,179,weatherlink.com 1.10,2013-06-05 23:15:00,
2013-06-05 17:30:00,47.0,38.0,29.57,East,88,14.0,18.0,72,0.00,,,0.00,200,weatherlink.com 1.10,2013-06-05 23:30:00,
2013-06-05 17:45:00,45.3,39.0,29.57,East,99,13.0,18.0,77,0.00,,,0.00,149,weatherlink.com 1.10,2013-06-05 23:45:00,
2013-06-05 18:00:00,43.9,38.0,29.57,ESE,111,16.0,20.0,81,0.00,,,0.00,149,weatherlink.com 1.10,2013-06-06 00:00:00,
2013-06-05 18:15:00,42.8,38.0,29.58,East,88,9.0,17.0,83,0.00,,,0.00,86,weatherlink.com 1.10,2013-06-06 00:15:00,
2013-06-05 18:30:00,42.1,38.0,29.59,ESE,107,11.0,15.0,85,0.00,,,0.00,72,weatherlink.com 1.10,2013-06-06 00:30:00,
2013-06-05 18:45:00,43.2,38.0,29.59,East,94,6.0,16.0,82,0.00,,,0.00,102,weatherlink.com 1.10,2013-06-06 00:45:00,
2013-06-05 19:00:00,43.8,38.0,29.59,ESE,112,12.0,14.0,80,0.00,,,0.00,54,weatherlink.com 1.10,2013-06-06 01:00:00,
2013-06-05 19:15:00,41.2,37.0,29.61,East,93,15.0,16.0,86,0.00,,,0.00,33,weatherlink.com 1.10,2013-06-06 01:15:00,
2013-06-05 19:30:00,40.2,38.0,29.61,East,96,11.0,18.0,90,0.00,,,0.00,51,weatherlink.com 1.10,2013-06-06 01:30:00,
2013-06-05 19:45:00,39.6,37.0,29.62,ESE,112,13.0,18.0,91,0.00,,,0.00,51,weatherlink.com 1.10,2013-06-06 01:45:00,
2013-06-05 20:00:00,39.2,37.0,29.63,East,101,17.0,18.0,93,0.00,,,0.00,35,weatherlink.com 1.10,2013-06-06 02:00:00,
2013-06-05 20:16:00,38.9,37.0,29.64,ESE,110,12.0,18.0,93,0.00,,,0.00,16,weatherlink.com 1.10,2013-06-06 02:16:00,
2013-06-05 20:31:00,38.5,37.0,29.65,ESE,105,12.0,15.0,94,0.00,,,0.00,0,weatherlink.com 1.10,2013-06-06 02:31:00,
2013-06-05 20:46:00,38.4,37.0,29.66,SE,128,12.0,17.0,94,0.00,,,0.00,0,weatherlink.com 1.10,2013-06-06 02:46:00,
2013-06-05 21:01:00,38.5,37.0,29.66,ESE,103,9.0,16.0,95,0.00,,,0.00,0,weatherlink.com 1.10,2013-06-06 03:01:00,
2013-06-05 21:16:00,38.5,37.0,29.67,ESE,117,9.0,14.0,95,0.00,,,0.00,0,weatherlink.com 1.10,2013-06-06 03:16:00,
2013-06-05 21:31:00,38.4,37.0,29.68,East,98,10.0,13.0,95,0.00,,,0.00,0,weatherlink.com 1.10,2013-06-06 03:31:00,
2013-06-05 21:46:00,38.4,37.0,29.69,East,100,7.0,12.0,95,0.00,,,0.00,0,weatherlink.com 1.10,2013-06-06 03:46:00,
2013-06-05 22:01:00,38.3,37.0,29.70,East,98,9.0,11.0,95,0.00,,,0.00,0,weatherlink.com 1.10,2013-06-06 04:01:00,
2013-06-05 22:16:00,38.2,37.0,29.71,ESE,103,8.0,11.0,95,0.00,,,0.00,0,weatherlink.com 1.10,2013-06-06 04:16:00,
2013-06-05 22:31:00,37.8,37.0,29.71,ESE,112,4.0,10.0,95,0.00,,,0.00,0,weatherlink.com 1.10,2013-06-06 04:31:00,
2013-06-05 22:46:00,37.5,36.0,29.72,ESE,103,5.0,8.0,95,0.00,,,0.00,0,weatherlink.com 1.10,2013-06-06 04:46:00,
2013-06-05 23:01:00,37.4,36.0,29.72,ESE,111,4.0,8.0,95,0.00,,,0.00,0,weatherlink.com 1.10,2013-06-06 05:01:00,
2013-06-05 23:16:00,37.0,36.0,29.72,ESE,111,2.0,4.0,94,0.00,,,0.00,0,weatherlink.com 1.10,2013-06-06 05:16:00,
2013-06-05 23:31:00,36.9,36.0,29.73,ESE,111,0.0,2.0,95,0.00,,,0.00,0,weatherlink.com 1.10,2013-06-06 05:31:00,
2013-06-05 23:46:00,37.0,36.0,29.73,ESE,111,0.0,0.0,95,0.00,,,0.00,0,weatherlink.com 1.10,2013-06-06 05:46:00,